createdAt,value
2023-03-01T00:04:38.254Z,3.02
2023-03-01T00:09:41.177Z,2.97
2023-03-01T00:14:42.839Z,2.95
2023-03-01T00:19:44.246Z,2.96
2023-03-01T00:24:45.953Z,2.83
2023-03-01T00:29:47.453Z,3.02
2023-03-01T00:34:55.432Z,2.94
2023-03-01T00:39:56.949Z,2.94
2023-03-01T00:44:59.020Z,2.97
2023-03-01T00:50:00.532Z,2.98
2023-03-01T00:55:02.370Z,2.89
2023-03-01T01:00:06.393Z,2.89
2023-03-01T01:05:08.308Z,2.91
2023-03-01T01:10:13.792Z,2.86
2023-03-01T01:15:17.523Z,2.86
2023-03-01T01:20:20.525Z,2.83
2023-03-01T01:25:22.644Z,2.83
2023-03-01T01:30:24.105Z,2.79
2023-03-01T01:35:25.817Z,2.80
2023-03-01T01:40:27.296Z,2.78
2023-03-01T01:45:35.151Z,2.78
2023-03-01T01:50:39.759Z,2.78
2023-03-01T01:55:45.824Z,2.77
2023-03-01T02:00:48.684Z,2.92
2023-03-01T02:05:58.089Z,2.92
2023-03-01T02:11:00.681Z,2.91
2023-03-01T02:16:09.241Z,2.85
2023-03-01T02:21:35.655Z,2.86
2023-03-01T02:26:50.115Z,2.79
2023-03-01T02:31:54.647Z,2.83
2023-03-01T02:37:00.930Z,2.77
2023-03-01T02:42:04.936Z,2.76
2023-03-01T02:47:06.996Z,2.76
2023-03-01T02:52:41.882Z,2.65
2023-03-01T02:57:46.275Z,2.58
2023-03-01T03:02:50.189Z,2.73
2023-03-01T03:07:52.535Z,2.69
2023-03-01T03:12:57.038Z,2.60
2023-03-01T03:18:00.175Z,2.59
2023-03-01T03:23:02.095Z,2.52
2023-03-01T03:28:10.843Z,2.53
2023-03-01T03:33:13.757Z,2.40
2023-03-01T03:38:17.905Z,2.31
2023-03-01T03:43:23.414Z,2.36
2023-03-01T03:48:25.875Z,2.30
2023-03-01T03:53:30.253Z,2.33
2023-03-01T03:58:31.917Z,2.34
2023-03-01T04:03:34.590Z,2.37
2023-03-01T04:08:36.043Z,2.28
2023-03-01T04:13:37.474Z,1.97
2023-03-01T04:18:39.103Z,2.12
2023-03-01T04:23:41.936Z,2.14
2023-03-01T04:28:47.454Z,2.10
2023-03-01T04:33:55.312Z,2.04
2023-03-01T04:38:57.258Z,2.10
2023-03-01T04:44:01.010Z,2.10
2023-03-01T04:49:03.801Z,2.15
2023-03-01T04:54:06.319Z,2.11
2023-03-01T04:59:09.435Z,1.73
2023-03-01T05:04:14.456Z,2.08
2023-03-01T05:09:16.169Z,2.02
2023-03-01T05:14:17.636Z,1.94
2023-03-01T05:19:23.786Z,2.00
2023-03-01T05:24:25.623Z,2.00
2023-03-01T05:29:29.107Z,2.02
2023-03-01T05:34:36.921Z,2.04
2023-03-01T05:39:38.486Z,2.02
2023-03-01T05:44:39.925Z,2.02
2023-03-01T05:49:41.612Z,2.01
2023-03-01T05:54:43.093Z,2.00
2023-03-01T05:59:44.725Z,1.96
2023-03-01T06:04:46.561Z,1.85
2023-03-01T06:09:48.134Z,1.93
2023-03-01T06:14:49.579Z,1.93
2023-03-01T06:19:51.109Z,1.87
2023-03-01T06:24:52.557Z,1.82
2023-03-01T06:29:54.307Z,1.97
2023-03-01T06:34:55.888Z,1.99
2023-03-01T06:39:59.097Z,2.08
2023-03-01T06:45:00.456Z,2.08
2023-03-01T06:50:03.139Z,2.22
2023-03-01T06:55:05.864Z,2.23
2023-03-01T07:00:08.958Z,2.66
2023-03-01T07:05:11.768Z,2.77
2023-03-01T07:10:14.624Z,2.76
2023-03-01T07:15:16.262Z,2.54
2023-03-01T07:20:19.545Z,2.56
2023-03-01T07:25:21.405Z,2.54
2023-03-01T07:30:23.663Z,2.46
2023-03-01T07:35:27.730Z,2.54
2023-03-01T07:40:29.864Z,2.44
2023-03-01T07:45:31.779Z,2.56
2023-03-01T07:50:33.516Z,2.64
2023-03-01T07:55:34.995Z,2.61
2023-03-01T08:00:36.638Z,2.77
2023-03-01T08:05:38.680Z,3.07
2023-03-01T08:10:40.147Z,3.33
2023-03-01T08:15:41.623Z,3.62
2023-03-01T08:20:43.252Z,3.84
2023-03-01T08:25:44.861Z,4.00
2023-03-01T08:30:46.441Z,4.18
2023-03-01T08:35:47.838Z,4.40
2023-03-01T08:40:51.881Z,4.52
2023-03-01T08:45:57.669Z,4.72
2023-03-01T08:51:08.670Z,5.01
2023-03-01T08:56:10.941Z,5.20
2023-03-01T09:01:14.992Z,5.40
2023-03-01T09:06:18.557Z,5.72
2023-03-01T09:11:22.710Z,5.83
2023-03-01T09:16:25.396Z,6.05
2023-03-01T09:21:39.555Z,6.30
2023-03-01T09:26:42.102Z,6.50
2023-03-01T09:31:44.280Z,6.76
2023-03-01T09:36:45.604Z,7.08
2023-03-01T09:42:04.822Z,7.43
2023-03-01T09:47:13.602Z,7.62
2023-03-01T09:52:35.490Z,7.89
2023-03-01T09:58:23.112Z,8.20
2023-03-01T10:03:36.457Z,8.80
2023-03-01T10:09:12.908Z,9.67
2023-03-01T10:14:33.283Z,10.96
2023-03-01T10:19:39.789Z,13.78
2023-03-01T10:24:41.285Z,15.12
2023-03-01T10:30:21.113Z,15.13
2023-03-01T10:35:27.111Z,14.00
2023-03-01T10:40:28.618Z,13.91
2023-03-01T10:45:35.730Z,14.47
2023-03-01T10:50:42.246Z,16.16
2023-03-01T10:55:44.903Z,19.01
2023-03-01T11:01:06.724Z,20.87
2023-03-01T11:06:13.905Z,21.65
2023-03-01T11:11:32.744Z,21.93
2023-03-01T11:16:39.963Z,22.55
2023-03-01T11:21:49.190Z,22.76
2023-03-01T11:26:56.182Z,24.32
2023-03-01T11:32:02.390Z,24.92
2023-03-01T11:37:13.553Z,26.06
2023-03-01T11:42:29.041Z,25.90
2023-03-01T11:48:08.809Z,26.98
2023-03-01T11:53:37.746Z,27.22
2023-03-01T11:59:09.123Z,27.80
2023-03-01T12:04:29.323Z,28.29
2023-03-01T12:09:52.346Z,28.25
2023-03-01T12:15:01.759Z,29.25
2023-03-01T12:20:18.975Z,30.55
2023-03-01T12:25:35.903Z,31.09
2023-03-01T12:30:49.856Z,31.76
2023-03-01T12:36:12.160Z,31.82
2023-03-01T12:41:25.831Z,32.13
2023-03-01T12:46:54.174Z,32.50
2023-03-01T12:52:10.455Z,32.67
2023-03-01T12:57:57.116Z,32.49
2023-03-01T13:03:37.110Z,32.74
2023-03-01T13:08:50.811Z,32.75
2023-03-01T13:13:56.962Z,33.13
2023-03-01T13:19:16.836Z,33.17
2023-03-01T13:24:29.339Z,32.99
2023-03-01T13:29:51.953Z,32.75
2023-03-01T13:34:59.352Z,32.49
2023-03-01T13:40:06.066Z,32.42
2023-03-01T13:45:43.588Z,32.03
2023-03-01T13:51:02.687Z,31.92
2023-03-01T13:56:13.025Z,31.94
2023-03-01T14:01:31.891Z,32.12
2023-03-01T14:06:36.819Z,31.55
2023-03-01T14:11:57.011Z,31.87
2023-03-01T14:17:22.532Z,32.03
2023-03-01T14:22:30.753Z,32.08
2023-03-01T14:27:43.740Z,31.68
2023-03-01T14:32:56.378Z,31.17
2023-03-01T14:37:58.558Z,31.16
2023-03-01T14:43:02.734Z,30.83
2023-03-01T14:48:07.043Z,30.57
2023-03-01T14:53:18.816Z,29.85
2023-03-01T14:58:25.895Z,29.16
2023-03-01T15:03:43.751Z,26.43
2023-03-01T15:08:52.522Z,24.92
2023-03-01T15:13:55.342Z,21.36
2023-03-01T15:19:07.158Z,19.39
2023-03-01T15:24:12.923Z,18.11
2023-03-01T15:29:24.077Z,17.17
2023-03-01T15:34:33.333Z,16.26
2023-03-01T15:39:40.767Z,15.66
2023-03-01T15:44:44.441Z,15.11
2023-03-01T15:49:54.881Z,14.72
2023-03-01T15:55:00.414Z,14.22
2023-03-01T16:00:02.238Z,13.97
2023-03-01T16:05:04.587Z,13.48
2023-03-01T16:10:07.005Z,13.09
2023-03-01T16:15:26.683Z,12.84
2023-03-01T16:20:32.773Z,12.73
2023-03-01T16:25:36.483Z,12.39
2023-03-01T16:30:40.579Z,12.05
2023-03-01T16:35:45.149Z,11.72
2023-03-01T16:40:49.333Z,11.41
2023-03-01T16:45:50.969Z,11.34
2023-03-01T16:51:02.537Z,11.01
2023-03-01T16:56:06.537Z,10.90
2023-03-01T17:01:11.931Z,10.72
2023-03-01T17:06:16.739Z,10.51
2023-03-01T17:11:18.918Z,10.34
2023-03-01T17:16:21.502Z,10.21
2023-03-01T17:21:23.189Z,9.78
2023-03-01T17:26:24.966Z,9.99
2023-03-01T17:31:26.677Z,9.82
2023-03-01T17:36:28.108Z,9.68
2023-03-01T17:41:29.817Z,9.53
2023-03-01T17:46:31.399Z,9.38
2023-03-01T17:51:33.289Z,9.19
2023-03-01T17:56:38.666Z,9.29
2023-03-01T18:01:42.580Z,9.09
2023-03-01T18:06:44.274Z,8.99
2023-03-01T18:11:47.836Z,8.69
2023-03-01T18:16:49.506Z,8.62
2023-03-01T18:21:51.294Z,8.43
2023-03-01T18:26:52.726Z,8.50
2023-03-01T18:31:54.667Z,8.28
2023-03-01T18:37:08.694Z,8.09
2023-03-01T18:42:11.411Z,8.05
2023-03-01T18:47:13.037Z,7.89
2023-03-01T18:52:14.449Z,7.81
2023-03-01T18:57:15.851Z,7.67
2023-03-01T19:02:17.593Z,7.48
2023-03-01T19:07:19.009Z,7.40
2023-03-01T19:12:21.565Z,7.28
2023-03-01T19:17:30.994Z,7.28
2023-03-01T19:22:32.802Z,7.17
2023-03-01T19:27:35.479Z,7.08
2023-03-01T19:32:36.905Z,6.95
2023-03-01T19:37:38.357Z,7.03
2023-03-01T19:42:39.729Z,6.91
2023-03-01T19:47:41.406Z,6.78
2023-03-01T19:52:42.819Z,6.72
2023-03-01T19:57:44.238Z,6.52
2023-03-01T20:02:46.140Z,6.40
2023-03-01T20:07:48.141Z,6.40
2023-03-01T20:12:49.777Z,6.42
2023-03-01T20:17:51.486Z,6.39
2023-03-01T20:22:53.067Z,6.42
2023-03-01T20:27:54.791Z,6.17
2023-03-01T20:32:56.280Z,6.13
2023-03-01T20:37:58.548Z,6.14
2023-03-01T20:43:00.928Z,6.09
2023-03-01T20:48:02.625Z,5.82
2023-03-01T20:53:04.269Z,5.91
2023-03-01T20:58:05.684Z,5.88
2023-03-01T21:03:07.529Z,5.87
2023-03-01T21:08:10.523Z,5.77
2023-03-01T21:13:12.166Z,5.70
2023-03-01T21:18:14.073Z,5.64
2023-03-01T21:23:15.844Z,5.55
2023-03-01T21:28:17.546Z,5.51
2023-03-01T21:33:18.983Z,5.43
2023-03-01T21:38:20.811Z,5.45
2023-03-01T21:43:23.047Z,5.29
2023-03-01T21:48:24.676Z,5.14
2023-03-01T21:53:28.984Z,5.20
2023-03-01T21:58:31.825Z,5.21
2023-03-01T22:03:33.853Z,5.13
2023-03-01T22:08:35.418Z,5.09
2023-03-01T22:13:37.119Z,5.11
2023-03-01T22:18:38.547Z,5.14
2023-03-01T22:23:40.852Z,5.08
2023-03-01T22:28:44.152Z,5.08
2023-03-01T22:33:47.493Z,5.03
2023-03-01T22:38:49.242Z,4.97
2023-03-01T22:43:50.653Z,4.95
2023-03-01T22:48:52.675Z,4.83
2023-03-01T22:53:54.958Z,4.81
2023-03-01T22:59:01.134Z,4.50
2023-03-01T23:04:02.764Z,4.72
2023-03-01T23:09:06.816Z,4.59
2023-03-01T23:14:08.343Z,4.47
2023-03-01T23:19:10.058Z,4.48
2023-03-01T23:24:11.649Z,4.37
2023-03-01T23:29:13.065Z,4.37
2023-03-01T23:34:14.850Z,4.44
2023-03-01T23:39:16.368Z,4.41
2023-03-01T23:44:20.655Z,4.31
2023-03-01T23:49:23.233Z,4.32
2023-03-01T23:54:25.842Z,4.36
2023-03-01T23:59:27.299Z,4.27
